Mobile Regional Airport
KMOB : now visible

Airfield :











YOU CAN JOIN US ON...

 
LOGIN :

Register | Disclaimer

   EN    FR    IT 

 









Legend :    VFR   Marginal VFR   IFR   Intensive IFR   Very Intensive IFR
Visi :
Ceiling :
>= 8 km
>= 3000ft
5 to 8 km
1000 to 3000 ft
1500m to 5 km
500 to 1000 ft
800 to 1500m
200 to 500 ft
< 800m
< 200 ft
Symbols :   Thunderstorms  Fog  Heavy snow  Heavy precipitations  Wind > 20 kt






- Airport Elevation : 219 ft
- IATA code : MOB


KMOB - Mobile Regional

CURRENT METAR :
  • 291456Z 26011G19KT 10SM SCT016 21/15 A2986 RMK AO2 SLP109 T02110150 51029

EXPIRED METARs :
  • 291415Z 26008G15KT 10SM SCT016 BKN050 21/17 A2985 RMK AO2 T02060172
  • 291356Z 26007KT 7SM SCT012 BKN028 BKN050 21/18 A2984 RMK AO2 SLP103 T02110183
  • 291349Z 25009G19KT 7SM SCT012 BKN028 BKN050 21/18 A2984 RMK AO2 T02060183
  • 291305Z 27011G20KT 7SM FEW005 BKN014 OVC028 22/21 A2981 RMK AO2 T02220206
  • 291256Z 23009G22KT 7SM SCT016 BKN028 22/21 A2980 RMK AO2 SLP089 T02220206

TAF KMOB
Valid from the 29 at 15:00 until the 30 at 12:00 UTC


291435Z 2915/3012 28012KT P6SM SCT024
FM291700 30012G20KT P6SM SKC
FM300800 33014G22KT P6SM SKC
KZHU FIR / North America



MET'MAP, your aeronautical weather chart ! - Copyright ORBIFLY December 2007 - Disclaimer

ORBIFLY MET'MAP TEAM :

Programming & Development : Alexandra Zaïnal
Concept & original design : Baudouin d'Aumeries
Assistance for programming : Marc-Olivier Méhu
Technical & hardware support : Manuel Goepfert

Contact : metmap@orbifly.com




SOURCES & CREDITS :

   NOAA       Earth
Advisory